Mayo, Florida
Current Conditions -  °F | °C
As of 12:15 PM on Monday 22 Dec 2014 (Local Time) from K24J Reporting Station
Thunderstorm Thunderstorm  
Wind Chill: 61°   Ceiling: 100
Heat Index: 61°   Visibility: 0.5mi
Dew Point: 61°   Wind: 5mph
Humidity: 100%   Direction: 330°NNW
Pressure: 29.96"   Gusts: NA
Location:  30.05°N, 83.17°W
Report Text: K24J 221715Z AUTO 33004KT 1/2SM VCTS OVC001 16/16 A2996 RMK AO1 LTG DSNT ALQDS
Loading
Personal Weather Stations






























Interactive Weather Map New forecast layout! Learn more

10-Day Weather Forecast

Advertisements
Track Severe Weather on mobile